sensor_id;sensor_type;location;lat;lon;timestamp;pressure;altitude;pressure_sealevel;temperature;humidity
54850;BME280;47660;51.334;12.396;2023-05-12T00:00:14;100179.66;;;23.61;41.40
54850;BME280;47660;51.334;12.396;2023-05-12T00:02:41;100181.00;;;23.50;41.46
54850;BME280;47660;51.334;12.396;2023-05-12T00:05:07;100174.16;;;23.69;41.27
54850;BME280;47660;51.334;12.396;2023-05-12T00:07:33;100176.69;;;23.40;41.79
54850;BME280;47660;51.334;12.396;2023-05-12T00:10:01;100171.53;;;23.46;41.51
54850;BME280;47660;51.334;12.396;2023-05-12T00:12:29;100179.59;;;23.69;41.57
54850;BME280;47660;51.334;12.396;2023-05-12T00:14:55;100185.88;;;23.69;41.92
54850;BME280;47660;51.334;12.396;2023-05-12T00:17:20;100175.84;;;23.70;41.79
54850;BME280;47660;51.334;12.396;2023-05-12T00:19:46;100175.94;;;23.32;42.04
54850;BME280;47660;51.334;12.396;2023-05-12T00:22:13;100171.09;;;23.57;43.36
54850;BME280;47660;51.334;12.396;2023-05-12T00:24:39;100175.66;;;23.41;42.63
54850;BME280;47660;51.334;12.396;2023-05-12T00:27:05;100171.03;;;23.87;41.92
54850;BME280;47660;51.334;12.396;2023-05-12T00:29:32;100172.56;;;24.05;41.52
54850;BME280;47660;51.334;12.396;2023-05-12T00:32:00;100176.88;;;23.54;41.90
54850;BME280;47660;51.334;12.396;2023-05-12T00:34:26;100177.34;;;23.87;40.79
54850;BME280;47660;51.334;12.396;2023-05-12T00:36:52;100196.81;;;23.61;41.20
54850;BME280;47660;51.334;12.396;2023-05-12T00:39:17;100202.97;;;24.37;40.12
54850;BME280;47660;51.334;12.396;2023-05-12T00:41:45;100195.94;;;24.64;39.04
54850;BME280;47660;51.334;12.396;2023-05-12T00:44:12;100196.06;;;23.67;40.56
54850;BME280;47660;51.334;12.396;2023-05-12T00:46:37;100195.25;;;24.18;39.56
54850;BME280;47660;51.334;12.396;2023-05-12T00:49:05;100205.94;;;24.20;39.55
54850;BME280;47660;51.334;12.396;2023-05-12T00:51:31;100202.06;;;23.78;40.34
54850;BME280;47660;51.334;12.396;2023-05-12T00:54:00;100200.44;;;24.94;39.47
54850;BME280;47660;51.334;12.396;2023-05-12T00:56:26;100197.00;;;24.41;40.33
54850;BME280;47660;51.334;12.396;2023-05-12T00:58:53;100196.78;;;24.21;40.69
54850;BME280;47660;51.334;12.396;2023-05-12T01:01:18;100197.13;;;24.55;39.90
54850;BME280;47660;51.334;12.396;2023-05-12T01:03:44;100196.16;;;24.84;39.34
54850;BME280;47660;51.334;12.396;2023-05-12T01:09:02;100191.78;;;24.25;40.22
54850;BME280;47660;51.334;12.396;2023-05-12T01:11:27;100194.78;;;24.30;41.05
54850;BME280;47660;51.334;12.396;2023-05-12T01:13:55;100192.44;;;24.27;41.59
54850;BME280;47660;51.334;12.396;2023-05-12T01:16:22;100182.63;;;24.69;41.65
54850;BME280;47660;51.334;12.396;2023-05-12T01:18:52;100186.44;;;24.53;40.71
54850;BME280;47660;51.334;12.396;2023-05-12T01:21:19;100190.69;;;24.19;41.00
54850;BME280;47660;51.334;12.396;2023-05-12T01:23:50;100187.97;;;24.77;40.69
54850;BME280;47660;51.334;12.396;2023-05-12T01:26:18;100194.66;;;24.01;42.07
54850;BME280;47660;51.334;12.396;2023-05-12T01:28:47;100192.91;;;24.30;41.55
54850;BME280;47660;51.334;12.396;2023-05-12T01:31:13;100184.63;;;24.60;40.67
54850;BME280;47660;51.334;12.396;2023-05-12T01:33:41;100191.06;;;24.96;40.21
54850;BME280;47660;51.334;12.396;2023-05-12T01:36:06;100194.97;;;24.28;41.85
54850;BME280;47660;51.334;12.396;2023-05-12T01:38:32;100198.28;;;24.09;42.68
54850;BME280;47660;51.334;12.396;2023-05-12T01:40:57;100193.13;;;24.14;41.99
54850;BME280;47660;51.334;12.396;2023-05-12T01:43:23;100190.59;;;24.12;41.81
54850;BME280;47660;51.334;12.396;2023-05-12T01:45:51;100196.56;;;24.23;42.53
54850;BME280;47660;51.334;12.396;2023-05-12T01:48:16;100202.63;;;24.03;41.57
54850;BME280;47660;51.334;12.396;2023-05-12T01:50:42;100198.28;;;23.94;41.91
54850;BME280;47660;51.334;12.396;2023-05-12T01:53:07;100201.50;;;23.67;42.61
54850;BME280;47660;51.334;12.396;2023-05-12T01:55:35;100186.69;;;23.85;42.38
54850;BME280;47660;51.334;12.396;2023-05-12T01:58:00;100193.06;;;23.62;42.63
54850;BME280;47660;51.334;12.396;2023-05-12T02:00:26;100190.97;;;23.94;42.24
54850;BME280;47660;51.334;12.396;2023-05-12T02:02:58;100186.41;;;24.10;42.85
54850;BME280;47660;51.334;12.396;2023-05-12T02:05:24;100194.47;;;24.03;42.31
54850;BME280;47660;51.334;12.396;2023-05-12T02:07:51;100196.63;;;23.78;42.52
54850;BME280;47660;51.334;12.396;2023-05-12T02:10:16;100207.66;;;23.61;42.08
54850;BME280;47660;51.334;12.396;2023-05-12T02:12:42;100197.03;;;24.26;41.10
54850;BME280;47660;51.334;12.396;2023-05-12T02:15:07;100207.25;;;24.09;42.94
54850;BME280;47660;51.334;12.396;2023-05-12T02:17:33;100210.75;;;24.03;43.05
54850;BME280;47660;51.334;12.396;2023-05-12T02:19:58;100207.16;;;24.17;43.28
54850;BME280;47660;51.334;12.396;2023-05-12T02:22:24;100194.78;;;24.30;42.72
54850;BME280;47660;51.334;12.396;2023-05-12T02:24:50;100203.88;;;24.22;42.97
54850;BME280;47660;51.334;12.396;2023-05-12T02:27:16;100200.59;;;24.27;43.14
54850;BME280;47660;51.334;12.396;2023-05-12T02:29:41;100206.75;;;23.99;43.56
54850;BME280;47660;51.334;12.396;2023-05-12T02:32:07;100202.69;;;23.95;43.18
54850;BME280;47660;51.334;12.396;2023-05-12T02:34:35;100201.56;;;24.19;42.55
54850;BME280;47660;51.334;12.396;2023-05-12T02:37:00;100199.78;;;24.11;43.39
54850;BME280;47660;51.334;12.396;2023-05-12T02:39:26;100198.00;;;24.03;41.77
54850;BME280;47660;51.334;12.396;2023-05-12T02:41:53;100197.63;;;24.65;41.86
54850;BME280;47660;51.334;12.396;2023-05-12T02:44:19;100200.66;;;23.82;43.22
54850;BME280;47660;51.334;12.396;2023-05-12T02:46:46;100194.00;;;23.84;42.75
54850;BME280;47660;51.334;12.396;2023-05-12T02:49:12;100199.03;;;23.87;42.57
54850;BME280;47660;51.334;12.396;2023-05-12T02:51:37;100189.78;;;23.82;42.63
54850;BME280;47660;51.334;12.396;2023-05-12T02:54:02;100192.84;;;23.94;42.09
54850;BME280;47660;51.334;12.396;2023-05-12T02:56:28;100191.59;;;23.59;42.54
54850;BME280;47660;51.334;12.396;2023-05-12T02:58:53;100191.09;;;23.71;42.36
54850;BME280;47660;51.334;12.396;2023-05-12T03:01:21;100197.75;;;23.98;41.71
54850;BME280;47660;51.334;12.396;2023-05-12T03:03:47;100195.94;;;23.61;42.25
54850;BME280;47660;51.334;12.396;2023-05-12T03:06:12;100197.34;;;23.86;42.08
54850;BME280;47660;51.334;12.396;2023-05-12T03:08:37;100190.81;;;23.66;42.30
54850;BME280;47660;51.334;12.396;2023-05-12T03:11:05;100186.88;;;23.83;42.00
54850;BME280;47660;51.334;12.396;2023-05-12T03:13:31;100186.97;;;23.75;42.18
54850;BME280;47660;51.334;12.396;2023-05-12T03:15:57;100193.44;;;23.74;42.13
54850;BME280;47660;51.334;12.396;2023-05-12T03:18:26;100193.41;;;23.89;42.10
54850;BME280;47660;51.334;12.396;2023-05-12T03:20:52;100192.84;;;23.94;41.75
54850;BME280;47660;51.334;12.396;2023-05-12T03:23:17;100186.88;;;23.83;41.85
54850;BME280;47660;51.334;12.396;2023-05-12T03:25:44;100196.22;;;23.96;41.96
54850;BME280;47660;51.334;12.396;2023-05-12T03:28:09;100204.28;;;23.89;41.75
54850;BME280;47660;51.334;12.396;2023-05-12T03:30:35;100196.44;;;23.64;42.67
54850;BME280;47660;51.334;12.396;2023-05-12T03:33:00;100205.31;;;23.43;42.78
54850;BME280;47660;51.334;12.396;2023-05-12T03:35:29;100196.16;;;23.44;43.07
54850;BME280;47660;51.334;12.396;2023-05-12T03:37:55;100200.25;;;23.55;42.98
54850;BME280;47660;51.334;12.396;2023-05-12T03:40:20;100199.78;;;23.81;42.80
54850;BME280;47660;51.334;12.396;2023-05-12T03:42:46;100203.75;;;23.79;42.39
54850;BME280;47660;51.334;12.396;2023-05-12T03:45:14;100203.91;;;23.62;42.64
54850;BME280;47660;51.334;12.396;2023-05-12T03:47:39;100199.91;;;23.58;43.12
54850;BME280;47660;51.334;12.396;2023-05-12T03:50:10;100203.25;;;23.60;42.88
54850;BME280;47660;51.334;12.396;2023-05-12T03:52:36;100203.19;;;23.53;42.96
54850;BME280;47660;51.334;12.396;2023-05-12T03:55:04;100196.16;;;23.74;42.54
54850;BME280;47660;51.334;12.396;2023-05-12T03:57:32;100195.41;;;23.80;42.22
54850;BME280;47660;51.334;12.396;2023-05-12T03:59:58;100198.69;;;23.07;43.79
54850;BME280;47660;51.334;12.396;2023-05-12T04:02:24;100195.94;;;23.31;43.41
54850;BME280;47660;51.334;12.396;2023-05-12T04:04:50;100199.97;;;23.35;43.26
54850;BME280;47660;51.334;12.396;2023-05-12T04:07:16;100194.75;;;23.33;43.45
54850;BME280;47660;51.334;12.396;2023-05-12T04:09:41;100195.84;;;23.24;43.47
54850;BME280;47660;51.334;12.396;2023-05-12T04:12:08;100198.75;;;22.99;43.85
54850;BME280;47660;51.334;12.396;2023-05-12T04:14:34;100193.66;;;23.19;43.70
54850;BME280;47660;51.334;12.396;2023-05-12T04:17:02;100206.31;;;23.87;43.38
54850;BME280;47660;51.334;12.396;2023-05-12T04:19:27;100202.06;;;23.09;43.75
54850;BME280;47660;51.334;12.396;2023-05-12T04:21:52;100196.91;;;23.38;43.31
54850;BME280;47660;51.334;12.396;2023-05-12T04:24:18;100194.75;;;23.33;43.60
54850;BME280;47660;51.334;12.396;2023-05-12T04:26:43;100199.97;;;23.50;43.44
54850;BME280;47660;51.334;12.396;2023-05-12T04:29:13;100204.66;;;23.86;43.15
54850;BME280;47660;51.334;12.396;2023-05-12T04:31:38;100204.84;;;23.84;42.98
54850;BME280;47660;51.334;12.396;2023-05-12T04:34:06;100205.41;;;23.95;43.27
54850;BME280;47660;51.334;12.396;2023-05-12T04:36:32;100214.47;;;23.42;43.76
54850;BME280;47660;51.334;12.396;2023-05-12T04:38:58;100215.63;;;23.78;43.17
54850;BME280;47660;51.334;12.396;2023-05-12T04:41:23;100208.84;;;23.43;43.76
54850;BME280;47660;51.334;12.396;2023-05-12T04:46:34;100220.06;;;23.02;44.64
54850;BME280;47660;51.334;12.396;2023-05-12T04:49:00;100219.56;;;23.22;44.26
54850;BME280;47660;51.334;12.396;2023-05-12T04:51:25;100213.84;;;23.55;43.98
54850;BME280;47660;51.334;12.396;2023-05-12T04:53:50;100229.72;;;23.28;44.21
54850;BME280;47660;51.334;12.396;2023-05-12T04:56:16;100226.09;;;23.51;43.58
54850;BME280;47660;51.334;12.396;2023-05-12T04:58:41;100218.50;;;23.46;44.08
54850;BME280;47660;51.334;12.396;2023-05-12T05:01:07;100226.38;;;23.18;44.36
54850;BME280;47660;51.334;12.396;2023-05-12T05:03:32;100225.03;;;22.75;45.44
54850;BME280;47660;51.334;12.396;2023-05-12T05:05:58;100225.50;;;23.02;44.62
54850;BME280;47660;51.334;12.396;2023-05-12T05:08:23;100224.09;;;23.06;44.86
54850;BME280;47660;51.334;12.396;2023-05-12T05:10:51;100229.78;;;22.73;45.12
54850;BME280;47660;51.334;12.396;2023-05-12T05:13:18;100238.09;;;22.95;45.16
54850;BME280;47660;51.334;12.396;2023-05-12T05:15:51;100219.81;;;24.25;43.16
54850;BME280;47660;51.334;12.396;2023-05-12T05:18:19;100234.94;;;23.29;44.34
54850;BME280;47660;51.334;12.396;2023-05-12T05:20:45;100240.47;;;23.36;44.44
54850;BME280;47660;51.334;12.396;2023-05-12T05:23:11;100235.56;;;22.70;45.10
54850;BME280;47660;51.334;12.396;2023-05-12T05:25:41;100243.19;;;22.66;45.38
54850;BME280;47660;51.334;12.396;2023-05-12T05:28:07;100237.66;;;23.06;44.33
54850;BME280;47660;51.334;12.396;2023-05-12T05:30:32;100238.63;;;22.90;44.69
54850;BME280;47660;51.334;12.396;2023-05-12T05:32:58;100244.31;;;23.27;44.03
54850;BME280;47660;51.334;12.396;2023-05-12T05:35:23;100249.06;;;23.25;43.98
54850;BME280;47660;51.334;12.396;2023-05-12T05:37:51;100249.00;;;23.33;44.12
54850;BME280;47660;51.334;12.396;2023-05-12T05:40:19;100242.41;;;23.27;43.97
54850;BME280;47660;51.334;12.396;2023-05-12T05:42:45;100246.94;;;23.35;43.75
54850;BME280;47660;51.334;12.396;2023-05-12T05:45:10;100253.50;;;22.71;44.53
54850;BME280;47660;51.334;12.396;2023-05-12T05:47:38;100251.28;;;22.98;44.42
54850;BME280;47660;51.334;12.396;2023-05-12T05:50:04;100241.72;;;23.79;43.27
54850;BME280;47660;51.334;12.396;2023-05-12T05:52:29;100246.00;;;23.73;43.15
54850;BME280;47660;51.334;12.396;2023-05-12T05:54:55;100252.09;;;23.75;42.92
54850;BME280;47660;51.334;12.396;2023-05-12T05:57:24;100247.25;;;24.00;42.52
54850;BME280;47660;51.334;12.396;2023-05-12T05:59:55;100251.81;;;23.85;43.15
54850;BME280;47660;51.334;12.396;2023-05-12T06:02:20;100247.91;;;23.87;42.35
54850;BME280;47660;51.334;12.396;2023-05-12T06:04:49;100253.34;;;24.02;42.46
54850;BME280;47660;51.334;12.396;2023-05-12T06:07:16;100251.91;;;23.92;42.28
54850;BME280;47660;51.334;12.396;2023-05-12T06:09:42;100257.53;;;24.20;41.70
54850;BME280;47660;51.334;12.396;2023-05-12T06:12:07;100258.59;;;24.04;42.19
54850;BME280;47660;51.334;12.396;2023-05-12T06:14:35;100260.47;;;24.03;42.30
54850;BME280;47660;51.334;12.396;2023-05-12T06:17:01;100256.78;;;24.26;41.16
54850;BME280;47660;51.334;12.396;2023-05-12T06:19:27;100258.84;;;23.94;41.08
54850;BME280;47660;51.334;12.396;2023-05-12T06:21:52;100260.28;;;24.42;40.57
54850;BME280;47660;51.334;12.396;2023-05-12T06:24:25;100265.44;;;24.52;40.99
54850;BME280;47660;51.334;12.396;2023-05-12T06:26:51;100275.22;;;24.31;40.88
54850;BME280;47660;51.334;12.396;2023-05-12T06:29:16;100274.97;;;24.11;40.44
54850;BME280;47660;51.334;12.396;2023-05-12T06:31:42;100279.72;;;23.94;40.66
54850;BME280;47660;51.334;12.396;2023-05-12T06:34:25;100269.06;;;25.17;39.31
54850;BME280;47660;51.334;12.396;2023-05-12T06:36:51;100278.56;;;25.85;38.18
54850;BME280;47660;51.334;12.396;2023-05-12T06:39:19;100284.25;;;24.53;40.18
54850;BME280;47660;51.334;12.396;2023-05-12T06:41:45;100289.06;;;24.36;40.71
54850;BME280;47660;51.334;12.396;2023-05-12T06:44:10;100290.72;;;25.11;40.00
54850;BME280;47660;51.334;12.396;2023-05-12T06:46:37;100281.97;;;25.37;40.43
54850;BME280;47660;51.334;12.396;2023-05-12T06:49:06;100280.78;;;25.68;40.89
54850;BME280;47660;51.334;12.396;2023-05-12T06:51:31;100270.88;;;26.37;39.25
54850;BME280;47660;51.334;12.396;2023-05-12T06:53:58;100278.84;;;25.40;41.51
54850;BME280;47660;51.334;12.396;2023-05-12T06:56:23;100277.53;;;24.86;40.17
54850;BME280;47660;51.334;12.396;2023-05-12T06:58:49;100279.91;;;25.68;38.86
54850;BME280;47660;51.334;12.396;2023-05-12T07:01:16;100276.69;;;25.29;38.88
54850;BME280;47660;51.334;12.396;2023-05-12T07:03:42;100270.47;;;25.63;37.43
54850;BME280;47660;51.334;12.396;2023-05-12T07:06:08;100280.16;;;25.73;36.93
54850;BME280;47660;51.334;12.396;2023-05-12T07:08:33;100274.34;;;26.80;36.33
54850;BME280;47660;51.334;12.396;2023-05-12T07:10:59;100270.63;;;27.01;35.47
54850;BME280;47660;51.334;12.396;2023-05-12T07:13:25;100266.94;;;26.05;36.82
54850;BME280;47660;51.334;12.396;2023-05-12T07:15:50;100263.69;;;26.85;35.93
54850;BME280;47660;51.334;12.396;2023-05-12T07:18:16;100268.66;;;26.61;37.19
54850;BME280;47660;51.334;12.396;2023-05-12T07:20:41;100267.94;;;27.08;35.44
54850;BME280;47660;51.334;12.396;2023-05-12T07:23:07;100273.53;;;26.17;35.90
54850;BME280;47660;51.334;12.396;2023-05-12T07:25:33;100269.19;;;26.36;35.84
54850;BME280;47660;51.334;12.396;2023-05-12T07:28:03;100264.41;;;25.97;36.84
54850;BME280;47660;51.334;12.396;2023-05-12T07:30:29;100263.56;;;26.03;35.14
54850;BME280;47660;51.334;12.396;2023-05-12T07:32:54;100267.16;;;26.10;34.70
54850;BME280;47660;51.334;12.396;2023-05-12T07:35:22;100263.66;;;26.72;34.02
54850;BME280;47660;51.334;12.396;2023-05-12T07:37:48;100261.47;;;25.98;34.85
54850;BME280;47660;51.334;12.396;2023-05-12T07:40:18;100265.38;;;25.89;35.19
54850;BME280;47660;51.334;12.396;2023-05-12T07:42:43;100277.50;;;25.29;36.29
54850;BME280;47660;51.334;12.396;2023-05-12T07:45:09;100267.66;;;26.14;35.39
54850;BME280;47660;51.334;12.396;2023-05-12T07:47:37;100270.66;;;28.41;32.33
54850;BME280;47660;51.334;12.396;2023-05-12T07:50:04;100274.03;;;27.50;33.66
54850;BME280;47660;51.334;12.396;2023-05-12T07:52:32;100272.53;;;27.34;34.22
54850;BME280;47660;51.334;12.396;2023-05-12T07:54:58;100277.28;;;26.72;34.52
54850;BME280;47660;51.334;12.396;2023-05-12T07:57:23;100272.97;;;27.65;33.13
54850;BME280;47660;51.334;12.396;2023-05-12T07:59:49;100270.56;;;26.67;34.55
54850;BME280;47660;51.334;12.396;2023-05-12T08:02:14;100276.94;;;26.33;34.92
54850;BME280;47660;51.334;12.396;2023-05-12T08:04:46;100266.03;;;27.42;34.18
54850;BME280;47660;51.334;12.396;2023-05-12T08:07:11;100261.63;;;27.61;32.97
54850;BME280;47660;51.334;12.396;2023-05-12T08:09:36;100267.47;;;27.85;33.04
54850;BME280;47660;51.334;12.396;2023-05-12T08:12:02;100268.13;;;26.93;33.29
54850;BME280;47660;51.334;12.396;2023-05-12T08:14:27;100272.22;;;26.62;33.51
54850;BME280;47660;51.334;12.396;2023-05-12T08:16:53;100272.31;;;26.95;33.67
54850;BME280;47660;51.334;12.396;2023-05-12T08:19:18;100260.06;;;28.90;30.80
54850;BME280;47660;51.334;12.396;2023-05-12T08:21:43;100268.59;;;29.76;29.96
54850;BME280;47660;51.334;12.396;2023-05-12T08:24:09;100274.09;;;28.61;31.23
54850;BME280;47660;51.334;12.396;2023-05-12T08:26:38;100278.09;;;28.20;30.67
54850;BME280;47660;51.334;12.396;2023-05-12T08:29:06;100269.41;;;27.37;30.82
54850;BME280;47660;51.334;12.396;2023-05-12T08:31:32;100268.38;;;28.70;30.23
54850;BME280;47660;51.334;12.396;2023-05-12T08:33:58;100271.03;;;27.92;30.50
54850;BME280;47660;51.334;12.396;2023-05-12T08:36:23;100278.84;;;28.80;29.43
54850;BME280;47660;51.334;12.396;2023-05-12T08:38:49;100281.16;;;27.45;30.65
54850;BME280;47660;51.334;12.396;2023-05-12T08:41:36;100286.91;;;28.09;31.20
54850;BME280;47660;51.334;12.396;2023-05-12T08:44:04;100286.63;;;28.37;29.94
54850;BME280;47660;51.334;12.396;2023-05-12T08:46:33;100276.47;;;28.51;29.74
54850;BME280;47660;51.334;12.396;2023-05-12T08:49:05;100289.41;;;28.69;30.54
54850;BME280;47660;51.334;12.396;2023-05-12T08:51:35;100276.84;;;29.26;29.26
54850;BME280;47660;51.334;12.396;2023-05-12T08:54:02;100283.94;;;28.24;30.98
54850;BME280;47660;51.334;12.396;2023-05-12T08:56:33;100287.88;;;28.41;30.34
54850;BME280;47660;51.334;12.396;2023-05-12T08:59:01;100285.28;;;28.14;30.76
54850;BME280;47660;51.334;12.396;2023-05-12T09:01:27;100282.09;;;28.04;30.62
54850;BME280;47660;51.334;12.396;2023-05-12T09:03:53;100285.13;;;27.62;31.14
54850;BME280;47660;51.334;12.396;2023-05-12T09:06:19;100281.53;;;27.82;30.12
54850;BME280;47660;51.334;12.396;2023-05-12T09:08:47;100282.09;;;28.17;30.11
54850;BME280;47660;51.334;12.396;2023-05-12T09:11:13;100287.44;;;27.65;30.86
54850;BME280;47660;51.334;12.396;2023-05-12T09:14:05;100273.84;;;29.09;29.31
54850;BME280;47660;51.334;12.396;2023-05-12T09:16:36;100277.50;;;28.57;30.46
54850;BME280;47660;51.334;12.396;2023-05-12T09:19:03;100287.56;;;28.17;31.15
54850;BME280;47660;51.334;12.396;2023-05-12T09:21:29;100280.03;;;28.90;29.97
54850;BME280;47660;51.334;12.396;2023-05-12T09:23:59;100276.28;;;30.42;29.41
54850;BME280;47660;51.334;12.396;2023-05-12T09:26:30;100268.22;;;29.22;29.45
54850;BME280;47660;51.334;12.396;2023-05-12T09:29:04;100271.69;;;30.05;28.37
54850;BME280;47660;51.334;12.396;2023-05-12T09:31:33;100282.06;;;28.11;30.63
54850;BME280;47660;51.334;12.396;2023-05-12T09:33:59;100283.41;;;27.81;30.50
54850;BME280;47660;51.334;12.396;2023-05-12T09:36:32;100274.44;;;28.79;30.22
54850;BME280;47660;51.334;12.396;2023-05-12T09:39:03;100267.94;;;29.05;29.71
54850;BME280;47660;51.334;12.396;2023-05-12T09:41:39;100276.44;;;29.22;30.00
54850;BME280;47660;51.334;12.396;2023-05-12T09:44:08;100274.41;;;29.43;29.26
54850;BME280;47660;51.334;12.396;2023-05-12T09:46:34;100267.44;;;28.89;30.11
54850;BME280;47660;51.334;12.396;2023-05-12T09:49:00;100274.47;;;29.04;30.18
54850;BME280;47660;51.334;12.396;2023-05-12T09:51:28;100273.00;;;28.76;29.68
54850;BME280;47660;51.334;12.396;2023-05-12T09:53:57;100271.78;;;28.65;29.70
54850;BME280;47660;51.334;12.396;2023-05-12T09:56:28;100273.41;;;28.34;30.75
54850;BME280;47660;51.334;12.396;2023-05-12T09:58:56;100265.31;;;28.91;30.11
54850;BME280;47660;51.334;12.396;2023-05-12T10:01:22;100276.78;;;28.68;30.02
54850;BME280;47660;51.334;12.396;2023-05-12T10:03:50;100259.03;;;30.04;28.77
54850;BME280;47660;51.334;12.396;2023-05-12T10:09:15;100258.44;;;30.02;28.80
54850;BME280;47660;51.334;12.396;2023-05-12T10:11:46;100256.13;;;29.81;28.60
54850;BME280;47660;51.334;12.396;2023-05-12T10:14:12;100261.03;;;29.02;28.41
54850;BME280;47660;51.334;12.396;2023-05-12T10:16:39;100259.13;;;29.98;27.75
54850;BME280;47660;51.334;12.396;2023-05-12T10:19:05;100262.44;;;29.62;28.76
54850;BME280;47660;51.334;12.396;2023-05-12T10:21:31;100251.75;;;30.78;27.20
54850;BME280;47660;51.334;12.396;2023-05-12T10:24:01;100258.94;;;29.74;28.26
54850;BME280;47660;51.334;12.396;2023-05-12T10:26:28;100254.72;;;29.27;27.87
54850;BME280;47660;51.334;12.396;2023-05-12T10:28:56;100263.94;;;29.08;28.49
54850;BME280;47660;51.334;12.396;2023-05-12T10:31:22;100257.69;;;29.51;27.52
54850;BME280;47660;51.334;12.396;2023-05-12T10:33:58;100257.84;;;30.49;27.11
54850;BME280;47660;51.334;12.396;2023-05-12T10:36:24;100256.19;;;29.55;28.33
54850;BME280;47660;51.334;12.396;2023-05-12T10:38:50;100259.81;;;29.24;28.10
54850;BME280;47660;51.334;12.396;2023-05-12T10:41:16;100259.56;;;29.25;28.22
54850;BME280;47660;51.334;12.396;2023-05-12T10:43:47;100249.97;;;29.85;27.66
54850;BME280;47660;51.334;12.396;2023-05-12T10:46:20;100261.25;;;29.26;28.23
54850;BME280;47660;51.334;12.396;2023-05-12T10:51:32;100246.66;;;30.02;27.61
54850;BME280;47660;51.334;12.396;2023-05-12T10:54:00;100250.34;;;30.87;27.40
54850;BME280;47660;51.334;12.396;2023-05-12T10:56:28;100241.19;;;29.58;28.05
54850;BME280;47660;51.334;12.396;2023-05-12T11:07:03;100244.50;;;30.83;26.88
54850;BME280;47660;51.334;12.396;2023-05-12T11:09:29;100250.28;;;30.63;26.89
54850;BME280;47660;51.334;12.396;2023-05-12T11:11:55;100246.00;;;29.62;27.91
54850;BME280;47660;51.334;12.396;2023-05-12T11:14:20;100249.78;;;30.36;27.39
54850;BME280;47660;51.334;12.396;2023-05-12T11:16:46;100244.41;;;31.02;26.17
54850;BME280;47660;51.334;12.396;2023-05-12T11:19:11;100241.88;;;31.01;25.91
54850;BME280;47660;51.334;12.396;2023-05-12T11:21:37;100260.38;;;29.76;27.58
54850;BME280;47660;51.334;12.396;2023-05-12T11:24:03;100244.16;;;30.92;25.99
54850;BME280;47660;51.334;12.396;2023-05-12T11:26:29;100254.13;;;29.69;27.28
54850;BME280;47660;51.334;12.396;2023-05-12T11:28:58;100249.09;;;30.10;26.96
54850;BME280;47660;51.334;12.396;2023-05-12T11:31:24;100247.66;;;29.82;27.18
54850;BME280;47660;51.334;12.396;2023-05-12T11:34:04;100242.44;;;31.81;25.74
54850;BME280;47660;51.334;12.396;2023-05-12T11:36:40;100246.91;;;31.04;26.00
54850;BME280;47660;51.334;12.396;2023-05-12T11:39:16;100250.41;;;31.94;24.37
54850;BME280;47660;51.334;12.396;2023-05-12T11:41:42;100254.50;;;30.47;25.35
54850;BME280;47660;51.334;12.396;2023-05-12T11:44:21;100254.66;;;29.59;25.93
54850;BME280;47660;51.334;12.396;2023-05-12T11:46:59;100244.34;;;30.66;25.17
54850;BME280;47660;51.334;12.396;2023-05-12T11:49:25;100258.16;;;29.16;26.54
54850;BME280;47660;51.334;12.396;2023-05-12T11:51:55;100254.88;;;29.58;26.16
54850;BME280;47660;51.334;12.396;2023-05-12T11:54:21;100253.25;;;30.13;25.45
54850;BME280;47660;51.334;12.396;2023-05-12T11:56:52;100240.22;;;32.65;23.16
54850;BME280;47660;51.334;12.396;2023-05-12T11:59:28;100251.16;;;31.30;24.06
54850;BME280;47660;51.334;12.396;2023-05-12T12:01:58;100248.47;;;31.00;24.00
54850;BME280;47660;51.334;12.396;2023-05-12T12:04:39;100249.66;;;31.04;23.89
54850;BME280;47660;51.334;12.396;2023-05-12T12:07:07;100251.38;;;30.74;23.81
54850;BME280;47660;51.334;12.396;2023-05-12T12:09:40;100250.38;;;31.11;23.73
54850;BME280;47660;51.334;12.396;2023-05-12T12:12:08;100255.75;;;30.14;24.38
54850;BME280;47660;51.334;12.396;2023-05-12T12:14:36;100260.66;;;30.43;23.84
54850;BME280;47660;51.334;12.396;2023-05-12T12:17:03;100254.88;;;30.02;23.93
54850;BME280;47660;51.334;12.396;2023-05-12T12:19:29;100252.53;;;30.97;23.23
54850;BME280;47660;51.334;12.396;2023-05-12T12:21:55;100251.81;;;31.13;23.34
54850;BME280;47660;51.334;12.396;2023-05-12T12:24:21;100251.22;;;31.11;23.12
54850;BME280;47660;51.334;12.396;2023-05-12T12:26:46;100257.56;;;30.58;23.54
54850;BME280;47660;51.334;12.396;2023-05-12T12:29:12;100259.13;;;30.65;23.24
54850;BME280;47660;51.334;12.396;2023-05-12T12:31:37;100259.50;;;30.50;23.69
54850;BME280;47660;51.334;12.396;2023-05-12T12:34:03;100265.28;;;30.61;23.53
54850;BME280;47660;51.334;12.396;2023-05-12T12:36:29;100252.53;;;32.04;22.58
54850;BME280;47660;51.334;12.396;2023-05-12T12:38:55;100255.91;;;31.82;22.45
54850;BME280;47660;51.334;12.396;2023-05-12T12:41:23;100257.25;;;31.32;22.89
54850;BME280;47660;51.334;12.396;2023-05-12T12:43:48;100253.41;;;31.57;22.82
54850;BME280;47660;51.334;12.396;2023-05-12T12:46:16;100258.91;;;31.69;22.08
54850;BME280;47660;51.334;12.396;2023-05-12T12:48:42;100264.41;;;32.63;20.71
54850;BME280;47660;51.334;12.396;2023-05-12T12:51:10;100262.13;;;31.42;21.72
54850;BME280;47660;51.334;12.396;2023-05-12T12:53:35;100258.94;;;30.79;22.60
54850;BME280;47660;51.334;12.396;2023-05-12T12:56:02;100260.28;;;31.12;22.88
54850;BME280;47660;51.334;12.396;2023-05-12T12:58:28;100257.13;;;31.27;22.91